Time;durP1;ratioP1;P1;durP2;ratioP2;P2;SDS_P1;SDS_P2;PMS_P1;PMS_P2;Temp;Humidity;BMP_temperature;BMP_pressure;BME280_temperature;BME280_humidity;BME280_pressure;Samples;Min_cycle;Max_cycle;Signal;HPM_P1;HPM_P2
2022/09/06 00:01:27;;;;;;;7.60;7.00;;;21.10;81.80;;;;;;4936991;29;20462;-79
2022/09/06 00:03:55;;;;;;;7.60;6.90;;;21.00;81.90;;;;;;4935112;29;20455;-79
2022/09/06 00:06:24;;;;;;;8.23;7.67;;;21.00;81.90;;;;;;4936778;28;20447;-79
2022/09/06 00:08:52;;;;;;;8.10;7.27;;;21.00;82.10;;;;;;4936634;29;20491;-79
2022/09/06 00:11:20;;;;;;;8.63;7.93;;;21.00;82.20;;;;;;4937978;29;20550;-79
2022/09/06 00:13:48;;;;;;;8.27;7.57;;;21.00;82.30;;;;;;4939424;29;20822;-79
2022/09/06 00:16:18;;;;;;;8.80;8.10;;;20.90;82.30;;;;;;4938746;29;20451;-79
2022/09/06 00:18:48;;;;;;;8.40;7.67;;;20.90;82.50;;;;;;4940811;29;20526;-79
2022/09/06 00:21:18;;;;;;;7.97;7.17;;;20.90;82.60;;;;;;4939354;29;20474;-79
2022/09/06 00:23:47;;;;;;;8.83;8.03;;;20.90;82.60;;;;;;4940297;29;20790;-79
2022/09/06 00:26:15;;;;;;;9.13;8.40;;;20.90;82.80;;;;;;4938670;29;20451;-79
2022/09/06 00:28:44;;;;;;;9.10;8.37;;;20.90;83.50;;;;;;4938831;29;20546;-79
2022/09/06 00:31:14;;;;;;;9.20;8.50;;;20.90;83.00;;;;;;4940443;29;20507;-79
2022/09/06 00:33:43;;;;;;;8.67;7.97;;;20.80;83.00;;;;;;4940710;29;20431;-79
2022/09/06 00:36:13;;;;;;;9.00;8.30;;;20.80;83.10;;;;;;4940203;29;20890;-79
2022/09/06 00:38:42;;;;;;;8.80;8.10;;;20.80;83.20;;;;;;4940195;29;20527;-79
2022/09/06 00:41:13;;;;;;;8.97;8.27;;;20.80;83.30;;;;;;4939953;29;20558;-79
2022/09/06 00:43:41;;;;;;;9.53;8.73;;;20.80;83.50;;;;;;4938989;29;20458;-79
2022/09/06 00:46:14;;;;;;;9.57;8.77;;;20.80;83.50;;;;;;4938820;29;20506;-78
2022/09/06 00:48:44;;;;;;;8.63;7.83;;;20.70;83.70;;;;;;4939841;29;20535;-78
2022/09/06 00:51:15;;;;;;;9.23;8.60;;;20.70;83.70;;;;;;4938608;29;20829;-79
2022/09/06 00:53:44;;;;;;;9.40;8.60;;;20.70;83.90;;;;;;4938712;29;20857;-79
2022/09/06 00:56:12;;;;;;;9.37;8.63;;;20.70;84.00;;;;;;4943106;29;20454;-78
2022/09/06 00:58:41;;;;;;;9.20;8.50;;;20.70;84.00;;;;;;4949217;29;20439;-79
2022/09/06 01:01:09;;;;;;;9.40;8.70;;;20.70;84.20;;;;;;4945190;29;20475;-79
2022/09/06 01:03:38;;;;;;;12.30;9.30;;;20.60;84.10;;;;;;4945183;28;20452;-79
2022/09/06 01:06:20;;;;;;;10.00;9.20;;;20.60;84.20;;;;;;4944332;29;20506;-79
2022/09/06 01:09:00;;;;;;;9.90;9.20;;;20.60;84.40;;;;;;4940166;29;20429;-79
2022/09/06 01:11:51;;;;;;;9.37;8.67;;;20.60;84.50;;;;;;4938449;29;20471;-79
2022/09/06 01:14:31;;;;;;;8.80;8.10;;;20.50;84.60;;;;;;4938659;29;20475;-79
2022/09/06 01:17:07;;;;;;;8.70;8.10;;;20.50;84.70;;;;;;4938383;29;20482;-80
2022/09/06 01:19:58;;;;;;;8.80;8.20;;;20.50;84.80;;;;;;4938527;29;20486;-79
2022/09/06 01:22:55;;;;;;;9.97;9.27;;;20.40;84.90;;;;;;4938200;29;20542;-79
2022/09/06 01:25:35;;;;;;;9.90;9.10;;;20.40;85.00;;;;;;4938767;29;20502;-79
2022/09/06 01:28:29;;;;;;;9.57;8.67;;;20.40;85.10;;;;;;4938328;29;20528;-79
2022/09/06 01:31:09;;;;;;;9.60;8.90;;;20.40;85.20;;;;;;4939666;29;20565;-79
2022/09/06 01:33:44;;;;;;;9.73;8.90;;;20.30;85.10;;;;;;4939318;29;20891;-79
2022/09/06 01:36:17;;;;;;;10.17;9.30;;;20.30;85.30;;;;;;4937974;29;20514;-79
2022/09/06 01:38:45;;;;;;;10.07;9.17;;;20.30;85.40;;;;;;4937598;29;20962;-79
2022/09/06 01:41:13;;;;;;;9.80;8.90;;;20.30;85.50;;;;;;4937905;29;20478;-79
2022/09/06 01:43:48;;;;;;;10.37;9.43;;;20.20;85.50;;;;;;4939244;29;20467;-79
2022/09/06 01:46:23;;;;;;;9.53;8.63;;;20.20;85.70;;;;;;4937913;29;20443;-79
2022/09/06 01:49:05;;;;;;;9.20;8.47;;;20.20;85.80;;;;;;4937643;29;20545;-79
2022/09/06 01:51:43;;;;;;;9.40;8.70;;;20.10;85.80;;;;;;4937504;29;20969;-79
2022/09/06 01:54:26;;;;;;;9.87;9.07;;;20.10;85.90;;;;;;4938140;29;20483;-79
2022/09/06 01:57:07;;;;;;;9.60;8.90;;;20.10;86.00;;;;;;4937573;29;20535;-79
2022/09/06 01:59:57;;;;;;;9.27;8.50;;;20.00;86.00;;;;;;4938944;28;20540;-79
2022/09/06 02:02:35;;;;;;;9.47;8.77;;;20.00;86.10;;;;;;4937274;29;20495;-79
2022/09/06 02:05:09;;;;;;;10.77;9.93;;;20.00;86.20;;;;;;4937056;29;20540;-79
2022/09/06 02:07:39;;;;;;;8.97;8.37;;;19.90;86.20;;;;;;4937534;29;20511;-78
2022/09/06 02:10:11;;;;;;;9.83;9.03;;;19.90;86.30;;;;;;4937594;29;20887;-78
2022/09/06 02:12:43;;;;;;;10.00;9.20;;;19.90;86.40;;;;;;4937026;29;20969;-79
2022/09/06 02:15:16;;;;;;;9.70;8.93;;;19.90;86.50;;;;;;4938058;29;20506;-79
2022/09/06 02:17:50;;;;;;;10.07;9.27;;;19.80;86.60;;;;;;4939075;29;20456;-79
2022/09/06 02:20:24;;;;;;;10.03;9.33;;;19.80;86.70;;;;;;4939434;29;20978;-79
2022/09/06 02:22:56;;;;;;;10.37;9.53;;;19.80;86.70;;;;;;4937856;29;20486;-79
2022/09/06 02:25:29;;;;;;;10.00;9.10;;;19.80;86.80;;;;;;4939030;29;20531;-79
2022/09/06 02:27:58;;;;;;;9.77;9.07;;;19.80;86.90;;;;;;4939041;28;20507;-79
2022/09/06 02:30:27;;;;;;;9.87;9.07;;;19.80;87.00;;;;;;4937182;29;20483;-79
2022/09/06 02:32:59;;;;;;;9.60;8.80;;;19.80;87.00;;;;;;4939409;29;20474;-79
2022/09/06 02:35:28;;;;;;;8.87;8.27;;;19.70;87.10;;;;;;4938228;29;20456;-79
2022/09/06 02:37:56;;;;;;;10.30;9.50;;;19.70;87.10;;;;;;4937596;29;20498;-79
2022/09/06 02:40:24;;;;;;;10.10;9.30;;;19.70;87.10;;;;;;4937588;29;20474;-79
2022/09/06 02:42:53;;;;;;;9.80;9.10;;;19.70;87.10;;;;;;4939273;29;20475;-79
2022/09/06 02:45:21;;;;;;;9.73;8.80;;;19.70;87.10;;;;;;4937217;29;20490;-79
2022/09/06 02:47:50;;;;;;;10.30;9.50;;;19.70;87.20;;;;;;4938511;29;20482;-79
2022/09/06 02:50:19;;;;;;;9.97;9.20;;;19.70;87.30;;;;;;4936870;29;20575;-79
2022/09/06 02:53:00;;;;;;;9.50;8.70;;;19.70;87.20;;;;;;4938311;29;20435;-79
2022/09/06 02:55:28;;;;;;;10.07;9.30;;;19.70;87.30;;;;;;4937188;29;20486;-79
2022/09/06 02:57:57;;;;;;;10.30;9.13;;;19.70;87.30;;;;;;4938930;28;20475;-79
2022/09/06 03:00:25;;;;;;;9.97;9.20;;;19.70;87.40;;;;;;4938530;29;20542;-79
2022/09/06 03:02:54;;;;;;;9.77;9.07;;;19.70;88.00;;;;;;4936394;29;20554;-79
2022/09/06 03:05:23;;;;;;;11.07;10.07;;;19.70;87.40;;;;;;4936425;29;20448;-79
2022/09/06 03:07:51;;;;;;;10.00;9.20;;;19.70;87.40;;;;;;4936443;29;20530;-79
2022/09/06 03:10:21;;;;;;;9.47;8.77;;;19.70;87.40;;;;;;4936587;29;21017;-79
2022/09/06 03:12:49;;;;;;;10.40;9.57;;;19.70;87.50;;;;;;4937631;29;20443;-79
2022/09/06 03:15:17;;;;;;;11.07;10.30;;;19.60;87.50;;;;;;4936133;29;20519;-79
2022/09/06 03:17:45;;;;;;;10.57;9.73;;;19.60;87.60;;;;;;4936480;29;20443;-78
2022/09/06 03:20:15;;;;;;;11.63;10.53;;;19.60;87.60;;;;;;4937646;29;20838;-79
2022/09/06 03:22:43;;;;;;;10.13;9.43;;;19.60;87.70;;;;;;4935920;29;20543;-79
2022/09/06 03:25:11;;;;;;;9.80;9.10;;;19.60;88.30;;;;;;4936213;29;20460;-79
2022/09/06 03:27:40;;;;;;;10.40;9.60;;;19.50;87.70;;;;;;4936352;29;20458;-79
2022/09/06 03:30:09;;;;;;;9.17;8.47;;;19.50;87.80;;;;;;4937543;29;20558;-78
2022/09/06 03:32:37;;;;;;;9.13;8.33;;;19.50;87.80;;;;;;4935735;29;20468;-79
2022/09/06 03:35:06;;;;;;;10.60;9.80;;;19.50;87.90;;;;;;4936025;29;20458;-79
2022/09/06 03:37:36;;;;;;;10.20;9.30;;;19.50;87.90;;;;;;4937256;29;20447;-79
2022/09/06 03:40:06;;;;;;;9.53;8.87;;;19.50;88.00;;;;;;4935812;29;20478;-79
2022/09/06 03:42:34;;;;;;;9.90;9.20;;;19.50;88.00;;;;;;4935981;29;20503;-78
2022/09/06 03:45:03;;;;;;;9.27;8.57;;;19.50;88.10;;;;;;4936365;29;20452;-79
2022/09/06 03:47:31;;;;;;;10.37;9.53;;;19.40;88.10;;;;;;4939781;29;20462;-79
2022/09/06 03:49:59;;;;;;;10.20;9.40;;;19.40;88.10;;;;;;4939772;29;20824;-79
2022/09/06 03:52:27;;;;;;;10.37;9.67;;;19.40;88.10;;;;;;4940843;29;20471;-79
2022/09/06 03:54:57;;;;;;;10.40;9.60;;;19.40;88.20;;;;;;4939737;29;20538;-79
2022/09/06 03:57:25;;;;;;;10.17;9.37;;;19.40;88.30;;;;;;4941146;29;20981;-79
2022/09/06 03:59:53;;;;;;;9.27;8.67;;;19.40;88.30;;;;;;4940206;29;21028;-79
2022/09/06 04:02:21;;;;;;;9.93;9.20;;;19.40;88.30;;;;;;4941415;29;21029;-79
2022/09/06 04:04:54;;;;;;;10.60;9.73;;;19.40;88.30;;;;;;4940647;29;20452;-79
2022/09/06 04:07:22;;;;;;;9.13;8.43;;;19.30;88.90;;;;;;4939504;29;20502;-79
2022/09/06 04:09:50;;;;;;;9.67;8.90;;;19.30;88.30;;;;;;4939336;29;20474;-79
2022/09/06 04:12:20;;;;;;;10.10;9.30;;;19.30;88.30;;;;;;4940469;29;21073;-79
2022/09/06 04:14:48;;;;;;;9.80;9.10;;;19.30;88.30;;;;;;4944198;29;20514;-79
2022/09/06 04:17:16;;;;;;;8.63;8.03;;;19.30;88.30;;;;;;4945468;29;20511;-79
2022/09/06 04:19:44;;;;;;;9.63;8.93;;;19.20;88.20;;;;;;4945716;29;20455;-79
2022/09/06 04:22:13;;;;;;;9.93;9.13;;;19.30;88.30;;;;;;4943979;29;20498;-79
2022/09/06 04:24:41;;;;;;;9.40;8.70;;;19.30;88.40;;;;;;4940913;29;20455;-79
2022/09/06 04:27:09;;;;;;;9.20;8.50;;;19.20;88.30;;;;;;4941000;29;20494;-79
2022/09/06 04:29:39;;;;;;;9.23;8.33;;;19.20;88.30;;;;;;4940891;29;20865;-79
2022/09/06 04:32:07;;;;;;;9.33;8.53;;;19.20;88.40;;;;;;4939227;29;20510;-79
2022/09/06 04:34:35;;;;;;;9.53;8.83;;;19.20;88.30;;;;;;4939208;29;20447;-79
2022/09/06 04:37:04;;;;;;;9.50;8.70;;;19.20;88.30;;;;;;4939403;29;20463;-79
2022/09/06 04:39:32;;;;;;;10.40;9.70;;;19.20;88.30;;;;;;4939524;29;20518;-79
2022/09/06 04:42:00;;;;;;;9.80;9.00;;;19.20;88.30;;;;;;4940031;29;20439;-79
2022/09/06 04:44:28;;;;;;;8.80;8.20;;;19.10;88.30;;;;;;4939157;29;20554;-79
2022/09/06 04:47:06;;;;;;;9.33;8.57;;;19.10;88.20;;;;;;4940434;29;20530;-79
2022/09/06 04:49:36;;;;;;;8.90;8.30;;;19.10;88.30;;;;;;4938965;29;20562;-79
2022/09/06 04:52:04;;;;;;;9.57;8.77;;;19.10;88.30;;;;;;4939286;29;20449;-79
2022/09/06 04:54:33;;;;;;;9.90;9.10;;;19.10;88.30;;;;;;4946693;29;20482;-79
2022/09/06 04:57:01;;;;;;;10.60;9.70;;;19.10;88.30;;;;;;4947403;28;20452;-79
2022/09/06 04:59:29;;;;;;;9.43;8.73;;;19.00;88.30;;;;;;4947068;28;20451;-79
2022/09/06 05:01:58;;;;;;;11.30;8.63;;;19.00;88.30;;;;;;4980863;28;20443;-79
2022/09/06 05:04:27;;;;;;;10.03;8.97;;;19.00;88.20;;;;;;4948974;28;20968;-79
2022/09/06 05:07:06;;;;;;;11.10;10.20;;;19.00;88.30;;;;;;4959749;29;20549;-79
2022/09/06 05:09:35;;;;;;;8.97;8.27;;;19.00;88.30;;;;;;4990640;28;20565;-79
2022/09/06 05:12:04;;;;;;;9.37;8.57;;;19.00;88.40;;;;;;4980633;28;20466;-80
2022/09/06 05:14:32;;;;;;;9.10;8.30;;;19.00;88.40;;;;;;4950683;29;20874;-80
2022/09/06 05:17:00;;;;;;;8.87;8.23;;;18.90;88.30;;;;;;4957090;28;20451;-80
2022/09/06 05:19:30;;;;;;;9.20;8.40;;;18.90;88.40;;;;;;4992194;28;20454;-80
2022/09/06 05:21:58;;;;;;;9.53;8.73;;;18.90;88.40;;;;;;4959305;29;20541;-80
2022/09/06 05:24:27;;;;;;;9.77;8.97;;;18.90;88.40;;;;;;4959054;28;20482;-81
2022/09/06 05:26:55;;;;;;;9.50;8.70;;;18.90;88.40;;;;;;4960725;28;20546;-80
2022/09/06 05:29:23;;;;;;;11.33;10.33;;;18.90;88.40;;;;;;4958602;28;20549;-80
2022/09/06 05:31:58;;;;;;;11.30;10.30;;;18.90;88.50;;;;;;4958283;28;20505;-80
2022/09/06 05:34:26;;;;;;;9.33;8.57;;;18.90;88.50;;;;;;4958664;28;20454;-81
2022/09/06 05:36:56;;;;;;;11.40;10.30;;;18.90;88.40;;;;;;4955647;28;20459;-80
2022/09/06 05:39:24;;;;;;;8.73;8.03;;;18.90;88.40;;;;;;4960455;28;20856;-80
2022/09/06 05:41:53;;;;;;;8.47;7.77;;;18.90;88.40;;;;;;4991231;28;20547;-80
2022/09/06 05:44:21;;;;;;;9.40;8.53;;;18.90;88.40;;;;;;4959578;28;20547;-80
2022/09/06 05:46:49;;;;;;;9.00;8.27;;;18.90;88.40;;;;;;4960340;28;21001;-80
2022/09/06 05:49:17;;;;;;;10.80;9.70;;;18.90;88.40;;;;;;4960081;28;20485;-80
2022/09/06 05:51:50;;;;;;;9.83;8.83;;;18.90;88.40;;;;;;4958514;28;20458;-79
2022/09/06 05:54:20;;;;;;;10.30;9.50;;;18.90;88.50;;;;;;4958143;28;20443;-80
2022/09/06 05:56:49;;;;;;;9.27;8.47;;;18.90;88.50;;;;;;4952349;28;20478;-80
2022/09/06 05:59:17;;;;;;;9.23;8.43;;;18.90;88.50;;;;;;4947442;29;20505;-80
2022/09/06 06:01:50;;;;;;;9.63;8.80;;;18.80;88.30;;;;;;4938893;29;20472;-80
2022/09/06 06:04:20;;;;;;;8.63;7.83;;;18.80;88.30;;;;;;4941583;29;20797;-80
2022/09/06 06:06:48;;;;;;;9.07;8.37;;;18.80;88.30;;;;;;4939369;29;20468;-80
2022/09/06 06:09:17;;;;;;;8.23;7.43;;;18.80;88.30;;;;;;4938541;29;20980;-80
2022/09/06 06:11:47;;;;;;;11.70;10.60;;;18.80;88.30;;;;;;4940175;29;20479;-80
2022/09/06 06:14:15;;;;;;;8.63;7.83;;;18.80;88.40;;;;;;4939165;29;20464;-80
2022/09/06 06:16:44;;;;;;;9.30;8.57;;;18.80;88.30;;;;;;4948542;29;20537;-80
2022/09/06 06:19:13;;;;;;;9.57;8.40;;;18.80;88.30;;;;;;4958214;28;20459;-80
2022/09/06 06:21:42;;;;;;;10.20;7.77;;;18.80;88.90;;;;;;4957511;28;20443;-80
2022/09/06 06:24:10;;;;;;;10.97;8.60;;;18.80;88.30;;;;;;4958308;29;20454;-80
2022/09/06 06:26:39;;;;;;;8.90;8.20;;;18.80;88.30;;;;;;4959783;28;20446;-80
2022/09/06 06:29:09;;;;;;;9.03;8.13;;;18.80;88.30;;;;;;4957472;28;20466;-80
2022/09/06 06:31:38;;;;;;;7.93;7.30;;;18.80;88.20;;;;;;4957079;28;20957;-80
2022/09/06 06:34:07;;;;;;;7.57;6.90;;;18.80;88.20;;;;;;4957932;28;21109;-80
2022/09/06 06:36:36;;;;;;;9.03;8.23;;;18.80;88.10;;;;;;4957076;28;20462;-80
2022/09/06 06:39:07;;;;;;;10.33;8.30;;;18.80;88.10;;;;;;4959108;28;20522;-80
2022/09/06 06:41:36;;;;;;;8.33;7.50;;;18.80;88.00;;;;;;4958443;28;20482;-80
2022/09/06 06:44:23;;;;;;;8.50;7.77;;;18.80;88.00;;;;;;4957414;28;20446;-80
2022/09/06 06:46:51;;;;;;;8.53;7.83;;;18.80;88.00;;;;;;4959114;28;20450;-80
2022/09/06 06:49:20;;;;;;;8.80;8.00;;;18.80;87.90;;;;;;4957365;28;20482;-80
2022/09/06 06:51:48;;;;;;;8.67;7.80;;;18.80;87.90;;;;;;4956937;29;20485;-80
2022/09/06 06:54:16;;;;;;;8.37;7.67;;;18.80;87.90;;;;;;4958223;28;20977;-80
2022/09/06 06:56:44;;;;;;;8.00;7.20;;;18.80;87.70;;;;;;4958401;28;20521;-80
2022/09/06 06:59:13;;;;;;;8.00;7.20;;;18.80;87.70;;;;;;4957130;28;20894;-80
2022/09/06 07:01:43;;;;;;;8.40;7.57;;;18.80;87.60;;;;;;4957227;28;20502;-80
2022/09/06 07:04:13;;;;;;;8.20;7.47;;;18.80;87.50;;;;;;4957144;28;20446;-80
2022/09/06 07:06:52;;;;;;;11.30;7.30;;;18.90;87.60;;;;;;4956703;28;20454;-79
2022/09/06 07:09:41;;;;;;;8.00;7.20;;;18.80;87.40;;;;;;4956712;28;20481;-80
2022/09/06 07:12:29;;;;;;;9.10;8.20;;;18.90;87.40;;;;;;4957994;28;20909;-79
2022/09/06 07:14:57;;;;;;;8.20;7.40;;;18.80;87.30;;;;;;4956277;28;21020;-79
2022/09/06 07:17:27;;;;;;;7.77;7.17;;;18.80;87.30;;;;;;4956778;28;20490;-80
2022/09/06 07:19:55;;;;;;;8.13;7.20;;;18.90;87.30;;;;;;4956271;28;20561;-81
2022/09/06 07:22:40;;;;;;;7.83;7.13;;;18.90;87.30;;;;;;4957950;28;20437;-80
2022/09/06 07:25:10;;;;;;;8.60;7.70;;;18.90;87.30;;;;;;4957926;28;20537;-79
2022/09/06 07:27:40;;;;;;;7.37;6.67;;;18.90;87.30;;;;;;4960498;28;20478;-79
2022/09/06 07:30:18;;;;;;;9.10;8.20;;;18.90;87.40;;;;;;4964216;28;20480;-79
2022/09/06 07:32:48;;;;;;;7.90;7.10;;;18.90;87.40;;;;;;4963244;28;20455;-79
2022/09/06 07:35:19;;;;;;;8.80;6.80;;;18.90;87.50;;;;;;4961060;29;20457;-80
2022/09/06 07:37:54;;;;;;;10.83;9.70;;;19.00;87.60;;;;;;4960638;28;21020;-80
2022/09/06 07:40:23;;;;;;;8.47;7.73;;;19.00;87.60;;;;;;4964706;28;20643;-80
2022/09/06 07:42:51;;;;;;;7.77;7.03;;;19.00;87.40;;;;;;4958874;28;20454;-80
2022/09/06 07:45:19;;;;;;;7.87;6.60;;;19.00;87.40;;;;;;4958836;28;20446;-80
2022/09/06 07:47:55;;;;;;;8.07;7.20;;;19.00;87.40;;;;;;4958614;28;20490;-80
2022/09/06 07:50:30;;;;;;;7.67;6.87;;;19.10;87.50;;;;;;4958381;28;20454;-81
2022/09/06 07:53:16;;;;;;;11.40;7.33;;;19.10;87.50;;;;;;4958772;29;20508;-80
2022/09/06 07:55:57;;;;;;;8.53;7.73;;;19.20;87.60;;;;;;4956674;28;20864;-80
2022/09/06 07:58:26;;;;;;;7.60;6.90;;;19.20;87.50;;;;;;4957052;29;20557;-80
2022/09/06 08:00:54;;;;;;;7.30;6.70;;;19.20;87.60;;;;;;4956791;28;20562;-80
2022/09/06 08:03:24;;;;;;;8.17;7.47;;;19.20;87.60;;;;;;4956553;28;20459;-80
2022/09/06 08:05:52;;;;;;;8.37;7.40;;;19.20;87.60;;;;;;4956798;28;20824;-80
2022/09/06 08:08:37;;;;;;;7.87;7.10;;;19.30;87.60;;;;;;4958058;28;20441;-80
2022/09/06 08:11:27;;;;;;;8.83;8.03;;;19.30;87.60;;;;;;4956767;28;20484;-81
2022/09/06 08:13:57;;;;;;;8.80;7.47;;;19.30;87.70;;;;;;4956596;28;20510;-79
2022/09/06 08:16:27;;;;;;;7.83;7.00;;;19.30;87.60;;;;;;4957199;28;20623;-79
2022/09/06 08:18:59;;;;;;;6.90;6.30;;;19.40;87.60;;;;;;4957792;28;20431;-80
2022/09/06 08:21:29;;;;;;;8.30;7.60;;;19.40;87.50;;;;;;4956867;28;20502;-81
2022/09/06 08:23:58;;;;;;;9.17;7.60;;;19.40;87.50;;;;;;4957994;28;20427;-79
2022/09/06 08:26:28;;;;;;;9.10;8.20;;;19.40;87.50;;;;;;4956612;28;20990;-80
2022/09/06 08:28:59;;;;;;;8.70;7.83;;;19.40;87.40;;;;;;4958180;28;20489;-80
2022/09/06 08:31:28;;;;;;;8.30;7.30;;;19.50;87.60;;;;;;4955269;28;21028;-80
2022/09/06 08:33:59;;;;;;;7.10;6.50;;;19.50;87.60;;;;;;4957043;28;20513;-81
2022/09/06 08:36:29;;;;;;;7.50;6.83;;;19.50;87.60;;;;;;4958859;28;20501;-79
2022/09/06 08:38:57;;;;;;;9.10;7.10;;;19.50;87.70;;;;;;4960597;28;20455;-79
2022/09/06 08:41:30;;;;;;;7.93;6.87;;;19.50;87.60;;;;;;4959631;28;20458;-79
2022/09/06 08:44:03;;;;;;;8.27;6.67;;;19.60;87.60;;;;;;4959675;28;20506;-80
2022/09/06 08:46:56;;;;;;;8.03;7.00;;;19.60;87.60;;;;;;4959960;28;20442;-80
2022/09/06 08:49:30;;;;;;;7.90;7.20;;;19.60;87.60;;;;;;4960642;28;20457;-81
2022/09/06 08:52:10;;;;;;;7.73;7.03;;;19.60;87.60;;;;;;4961060;28;20419;-80
2022/09/06 08:54:45;;;;;;;8.07;7.37;;;19.60;87.60;;;;;;4960215;29;20470;-80
2022/09/06 08:57:28;;;;;;;8.73;6.67;;;19.60;87.60;;;;;;4959741;29;20536;-80
2022/09/06 09:00:01;;;;;;;7.57;6.97;;;19.60;87.60;;;;;;4960645;28;21045;-79
2022/09/06 09:02:42;;;;;;;8.60;7.17;;;19.60;87.60;;;;;;4959771;28;20450;-80
2022/09/06 09:05:21;;;;;;;7.93;6.83;;;19.60;87.80;;;;;;4959835;28;20446;-80
2022/09/06 09:07:57;;;;;;;7.13;6.53;;;19.60;87.90;;;;;;4959488;28;20866;-79
2022/09/06 09:10:28;;;;;;;8.90;6.63;;;19.60;87.90;;;;;;4960108;28;20478;-81
2022/09/06 09:12:57;;;;;;;8.50;7.70;;;19.60;88.00;;;;;;4960732;28;20470;-80
2022/09/06 09:15:26;;;;;;;7.27;6.53;;;19.60;88.00;;;;;;4960528;28;20566;-80
2022/09/06 09:17:55;;;;;;;7.57;6.87;;;19.60;88.20;;;;;;4960046;28;20454;-80
2022/09/06 09:20:24;;;;;;;8.73;7.93;;;19.60;88.50;;;;;;4959979;28;20921;-80
2022/09/06 09:22:52;;;;;;;8.10;7.40;;;19.50;88.90;;;;;;4961075;28;20434;-80
2022/09/06 09:25:23;;;;;;;7.87;7.07;;;19.50;89.40;;;;;;4961315;28;20474;-80
2022/09/06 09:27:56;;;;;;;8.20;7.30;;;19.50;90.10;;;;;;4959157;28;20439;-80
2022/09/06 09:30:26;;;;;;;9.57;8.70;;;19.50;90.30;;;;;;4959946;28;20475;-80
2022/09/06 09:33:23;;;;;;;8.33;7.30;;;19.50;90.60;;;;;;4960924;28;20493;-80
2022/09/06 09:35:53;;;;;;;8.20;7.40;;;19.50;90.70;;;;;;4960402;28;20539;-80
2022/09/06 09:38:25;;;;;;;7.70;7.00;;;19.50;90.80;;;;;;4961009;28;20443;-80
2022/09/06 09:40:55;;;;;;;9.97;7.60;;;19.40;90.80;;;;;;4959794;28;20482;-80
2022/09/06 09:43:25;;;;;;;7.10;6.40;;;19.50;91.00;;;;;;4961419;28;20839;-80
2022/09/06 09:46:15;;;;;;;8.13;7.33;;;19.40;91.00;;;;;;4961573;28;20930;-80
2022/09/06 09:48:58;;;;;;;8.27;7.57;;;19.40;91.10;;;;;;4961748;28;20549;-80
2022/09/06 09:51:29;;;;;;;11.37;6.90;;;19.40;91.10;;;;;;4959205;28;20475;-80
2022/09/06 09:53:58;;;;;;;7.93;6.67;;;19.40;91.20;;;;;;4959363;28;20493;-81
2022/09/06 09:56:44;;;;;;;7.67;6.93;;;19.40;91.30;;;;;;4958724;28;20553;-80
2022/09/06 09:59:22;;;;;;;7.97;7.03;;;19.40;91.40;;;;;;4958501;28;20454;-81
2022/09/06 10:01:54;;;;;;;7.47;6.87;;;19.40;91.50;;;;;;4960644;28;20435;-80
2022/09/06 10:04:31;;;;;;;7.93;7.13;;;19.50;91.50;;;;;;4958779;28;20450;-80
2022/09/06 10:07:18;;;;;;;7.90;7.20;;;19.60;91.60;;;;;;4959555;28;20811;-81
2022/09/06 10:09:48;;;;;;;7.33;6.63;;;19.60;91.50;;;;;;4959450;28;20564;-81
2022/09/06 10:12:18;;;;;;;7.33;6.73;;;19.60;91.50;;;;;;4958284;28;20545;-80
2022/09/06 10:14:48;;;;;;;7.90;7.13;;;19.60;91.60;;;;;;4959621;28;20989;-80
2022/09/06 10:17:27;;;;;;;10.90;7.10;;;19.60;91.60;;;;;;4958375;28;20486;-80
2022/09/06 10:19:56;;;;;;;6.90;6.30;;;19.60;91.60;;;;;;4958369;28;20490;-80
2022/09/06 10:22:30;;;;;;;7.50;6.80;;;19.60;91.50;;;;;;4957830;28;20470;-78
2022/09/06 10:25:28;;;;;;;8.00;7.20;;;19.60;91.40;;;;;;4956470;29;20529;-78
2022/09/06 10:28:33;;;;;;;8.33;7.27;;;19.60;91.30;;;;;;4956628;29;20882;-79
2022/09/06 10:31:33;;;;;;;7.17;6.40;;;19.60;91.20;;;;;;4956790;28;20827;-79
2022/09/06 10:34:12;;;;;;;8.53;7.83;;;19.50;91.20;;;;;;4946312;29;20462;-79
2022/09/06 10:36:46;;;;;;;8.13;6.57;;;19.50;91.20;;;;;;4956761;29;20454;-78
2022/09/06 10:39:31;;;;;;;8.40;7.17;;;19.50;91.20;;;;;;4956645;28;20497;-81
2022/09/06 10:42:08;;;;;;;7.80;7.10;;;19.50;91.20;;;;;;4958705;29;20446;-81
2022/09/06 10:44:51;;;;;;;8.20;7.10;;;19.50;91.30;;;;;;4958072;29;20506;-81
2022/09/06 10:47:21;;;;;;;7.97;7.20;;;19.60;91.40;;;;;;4958159;29;20902;-81
2022/09/06 10:49:54;;;;;;;9.87;7.37;;;19.60;91.40;;;;;;4958192;28;20474;-81
2022/09/06 10:52:26;;;;;;;7.60;6.90;;;19.60;91.50;;;;;;4957753;28;20553;-82
2022/09/06 10:55:03;;;;;;;7.90;7.10;;;19.60;91.50;;;;;;4956585;28;20509;-82
2022/09/06 10:57:39;;;;;;;8.60;7.00;;;19.60;91.50;;;;;;4958186;28;20470;-81
2022/09/06 11:00:28;;;;;;;9.87;6.70;;;19.60;91.50;;;;;;4957194;28;20478;-81
2022/09/06 11:03:01;;;;;;;7.87;7.20;;;19.60;91.40;;;;;;4957939;28;20969;-81
2022/09/06 11:05:53;;;;;;;8.40;7.70;;;19.70;91.70;;;;;;4957648;28;20537;-81
2022/09/06 11:08:24;;;;;;;7.23;6.60;;;19.70;91.40;;;;;;4957458;29;20523;-81
2022/09/06 11:11:20;;;;;;;8.73;7.50;;;19.70;91.40;;;;;;4958830;28;20471;-80
2022/09/06 11:13:48;;;;;;;9.10;7.60;;;19.80;91.40;;;;;;4959560;28;20473;-80
2022/09/06 11:16:22;;;;;;;7.57;6.80;;;19.80;91.40;;;;;;4957416;29;20484;-81
2022/09/06 11:18:56;;;;;;;9.67;7.03;;;19.80;91.30;;;;;;4959397;28;20510;-81
2022/09/06 11:21:47;;;;;;;8.13;7.33;;;19.80;91.30;;;;;;4958363;28;20498;-80
2022/09/06 11:24:21;;;;;;;10.83;8.17;;;19.90;91.40;;;;;;4958898;28;20431;-80
2022/09/06 11:27:04;;;;;;;9.10;7.73;;;20.00;91.40;;;;;;4958671;29;20429;-81
2022/09/06 11:29:34;;;;;;;8.10;7.30;;;20.20;91.50;;;;;;4960504;28;20537;-80
2022/09/06 11:32:31;;;;;;;8.70;7.80;;;20.30;91.50;;;;;;4959913;28;20422;-79
2022/09/06 11:35:03;;;;;;;10.73;9.63;;;20.30;91.50;;;;;;4957302;28;20514;-80
2022/09/06 11:37:34;;;;;;;8.70;7.97;;;20.40;91.50;;;;;;4957546;28;20885;-80
2022/09/06 11:40:13;;;;;;;9.53;7.80;;;20.50;91.60;;;;;;4957075;28;20470;-79
2022/09/06 11:43:15;;;;;;;8.97;8.27;;;20.50;91.60;;;;;;4957832;28;20546;-79
2022/09/06 11:45:46;;;;;;;9.37;8.50;;;20.60;91.50;;;;;;4958574;28;20450;-79
2022/09/06 11:48:33;;;;;;;8.67;7.87;;;20.60;91.60;;;;;;4959769;28;20961;-79
2022/09/06 11:51:06;;;;;;;9.10;8.30;;;20.70;91.70;;;;;;4957233;28;20482;-79
2022/09/06 11:53:56;;;;;;;11.90;10.70;;;20.70;91.70;;;;;;4959324;28;20875;-79
2022/09/06 11:56:30;;;;;;;12.00;10.97;;;20.80;92.10;;;;;;4959096;28;20475;-79
2022/09/06 11:59:06;;;;;;;10.83;9.73;;;20.80;91.80;;;;;;4959189;28;20553;-79
2022/09/06 12:01:39;;;;;;;11.03;10.03;;;20.90;91.80;;;;;;4958496;28;20520;-79
2022/09/06 12:04:09;;;;;;;10.27;9.37;;;20.90;91.80;;;;;;4958438;29;20445;-79
2022/09/06 12:06:40;;;;;;;10.30;9.50;;;20.90;91.90;;;;;;4957612;28;20447;-79
2022/09/06 12:09:30;;;;;;;11.10;10.13;;;21.00;92.00;;;;;;4960942;28;20442;-79
2022/09/06 12:11:59;;;;;;;9.90;9.10;;;21.10;92.10;;;;;;4962026;28;20430;-80
2022/09/06 12:14:35;;;;;;;10.37;9.60;;;21.20;92.20;;;;;;4964078;28;20438;-80
2022/09/06 12:17:45;;;;;;;10.00;9.17;;;21.30;92.20;;;;;;4964007;28;20557;-80
2022/09/06 12:20:57;;;;;;;10.90;9.97;;;21.40;92.30;;;;;;4970933;28;20462;-79
2022/09/06 12:23:43;;;;;;;10.53;9.67;;;21.40;92.30;;;;;;4946363;29;20882;-79
2022/09/06 12:26:12;;;;;;;10.23;9.33;;;21.50;92.30;;;;;;4962045;29;20545;-79
2022/09/06 12:28:50;;;;;;;12.13;10.40;;;21.50;92.20;;;;;;4962469;28;20466;-79
2022/09/06 12:31:36;;;;;;;11.17;10.27;;;21.50;92.20;;;;;;4960581;28;20545;-79
2022/09/06 12:34:19;;;;;;;10.10;9.27;;;21.60;92.30;;;;;;4962231;28;20455;-79
2022/09/06 12:36:51;;;;;;;9.70;8.93;;;21.60;92.30;;;;;;4960265;28;20466;-79
2022/09/06 12:39:21;;;;;;;9.53;8.77;;;21.60;92.30;;;;;;4961163;28;20419;-79
2022/09/06 12:41:53;;;;;;;12.37;11.27;;;21.70;92.40;;;;;;4960484;29;20486;-79
2022/09/06 12:44:34;;;;;;;9.43;8.63;;;21.70;92.30;;;;;;4959728;29;20873;-79
2022/09/06 12:47:09;;;;;;;10.30;9.40;;;21.70;92.30;;;;;;4959797;28;20443;-79
2022/09/06 12:49:38;;;;;;;8.63;7.90;;;21.80;92.60;;;;;;4959915;28;20500;-79
2022/09/06 12:52:08;;;;;;;9.60;8.90;;;21.80;92.30;;;;;;4960125;28;20490;-79
2022/09/06 12:54:45;;;;;;;10.40;9.43;;;21.90;92.30;;;;;;4961749;28;20526;-79
2022/09/06 12:57:19;;;;;;;9.73;8.90;;;21.90;92.30;;;;;;4961993;28;20501;-79
2022/09/06 12:59:49;;;;;;;10.33;9.50;;;22.00;92.30;;;;;;4960452;28;20997;-79
2022/09/06 13:02:21;;;;;;;9.67;8.77;;;22.10;92.30;;;;;;4961179;28;20964;-80
2022/09/06 13:04:52;;;;;;;10.80;9.67;;;22.10;92.20;;;;;;4959624;28;20482;-80
2022/09/06 13:07:22;;;;;;;9.90;9.10;;;22.20;92.10;;;;;;4961301;28;20523;-79
2022/09/06 13:09:56;;;;;;;12.23;9.73;;;22.20;92.10;;;;;;4959656;28;20478;-78
2022/09/06 13:12:28;;;;;;;10.57;9.63;;;22.20;92.10;;;;;;4959722;28;20485;-78
2022/09/06 13:15:01;;;;;;;9.83;9.03;;;22.30;92.10;;;;;;4958841;28;20489;-78